Time;durP1;ratioP1;P1;durP2;ratioP2;P2;SDS_P1;SDS_P2;PMS_P1;PMS_P2;Temp;Humidity;BMP_temperature;BMP_pressure;BME280_temperature;BME280_humidity;BME280_pressure;Samples;Min_cycle;Max_cycle;Signal;HPM_P1;HPM_P2
2023/07/12 00:01:36;;;;;;;7.18;1.83;;;20.20;63.20;;;;;;5047066;28;20060;-82
2023/07/12 00:04:03;;;;;;;3.08;1.10;;;20.10;63.70;;;;;;5052993;28;20135;-82
2023/07/12 00:06:36;;;;;;;5.65;1.65;;;20.10;63.20;;;;;;5051194;28;20037;-82
2023/07/12 00:09:12;;;;;;;4.53;1.77;;;20.10;63.40;;;;;;5038306;28;20047;-82
2023/07/12 00:11:44;;;;;;;3.17;1.60;;;20.00;63.20;;;;;;5059964;28;20119;-82
2023/07/12 00:14:13;;;;;;;3.95;1.70;;;20.00;63.20;;;;;;5046436;28;20407;-82
2023/07/12 00:16:42;;;;;;;4.15;1.50;;;20.00;63.30;;;;;;5035035;28;20036;-82
2023/07/12 00:19:15;;;;;;;3.03;1.42;;;20.00;63.50;;;;;;5043969;28;20392;-82
2023/07/12 00:21:41;;;;;;;;;;;19.90;63.40;;;;;;5055233;28;20060;-82
2023/07/12 00:24:09;;;;;;;2.83;1.48;;;20.00;63.40;;;;;;5048560;28;19909;-82
2023/07/12 00:26:36;;;;;;;3.63;1.35;;;19.90;63.20;;;;;;5054790;28;20048;-82
2023/07/12 00:29:08;;;;;;;4.17;2.10;;;19.90;63.30;;;;;;5040122;28;20029;-81
2023/07/12 00:31:38;;;;;;;4.53;1.58;;;19.90;63.40;;;;;;5049339;28;20269;-82
2023/07/12 00:34:08;;;;;;;4.53;1.65;;;19.90;63.50;;;;;;5051660;28;20103;-82
2023/07/12 00:36:39;;;;;;;3.97;1.50;;;19.80;63.40;;;;;;5049288;28;20091;-82
2023/07/12 00:39:24;;;;;;;5.13;1.88;;;19.80;63.50;;;;;;5037993;28;20040;-82
2023/07/12 00:42:06;;;;;;;7.80;1.77;;;19.80;63.50;;;;;;5058063;28;20036;-83
2023/07/12 00:44:37;;;;;;;6.00;1.55;;;19.80;64.20;;;;;;5042810;28;20028;-83
2023/07/12 00:47:22;;;;;;;5.10;1.80;;;19.80;63.70;;;;;;5033746;28;20451;-83
2023/07/12 00:49:57;;;;;;;2.88;1.48;;;19.80;63.70;;;;;;5045447;28;20036;-82
2023/07/12 00:52:31;;;;;;;4.43;1.70;;;19.70;63.70;;;;;;5033298;28;20029;-82
2023/07/12 00:55:03;;;;;;;6.75;1.73;;;19.70;63.70;;;;;;5049673;28;20060;-82
2023/07/12 00:57:48;;;;;;;5.57;2.05;;;19.70;63.80;;;;;;5046947;28;20165;-83
2023/07/12 01:00:16;;;;;;;4.82;2.17;;;19.60;63.60;;;;;;5029812;28;20172;-82
2023/07/12 01:02:59;;;;;;;4.05;1.70;;;19.60;63.70;;;;;;5047952;28;20110;-83
2023/07/12 01:05:32;;;;;;;3.78;1.60;;;19.60;63.80;;;;;;5038121;28;20017;-83
2023/07/12 01:08:21;;;;;;;4.50;1.88;;;19.60;63.80;;;;;;5039985;28;20145;-82
2023/07/12 01:10:53;;;;;;;3.45;1.45;;;19.60;63.90;;;;;;5039011;28;21016;-81
2023/07/12 01:13:24;;;;;;;5.43;2.35;;;19.60;63.90;;;;;;5042497;28;20033;-82
2023/07/12 01:16:17;;;;;;;3.85;1.60;;;19.50;63.90;;;;;;5027109;28;20048;-83
2023/07/12 01:19:02;;;;;;;5.35;1.90;;;19.50;63.90;;;;;;5049179;28;20044;-82
2023/07/12 01:21:53;;;;;;;5.70;1.67;;;19.50;63.90;;;;;;5039616;28;20036;-81
2023/07/12 01:24:39;;;;;;;5.22;1.70;;;19.50;64.00;;;;;;5033774;28;20136;-82
2023/07/12 01:27:24;;;;;;;3.03;2.28;;;19.50;64.00;;;;;;5037477;28;20036;-82
2023/07/12 01:29:51;;;;;;;3.30;1.88;;;19.50;64.20;;;;;;5018252;28;20044;-83
2023/07/12 01:32:18;;;;;;;3.15;2.15;;;19.40;64.00;;;;;;5036517;28;20076;-83
2023/07/12 01:34:45;;;;;;;3.70;1.50;;;19.40;64.10;;;;;;5040699;28;20057;-83
2023/07/12 01:37:13;;;;;;;6.35;2.08;;;19.40;64.10;;;;;;5042856;28;20028;-83
2023/07/12 01:39:39;;;;;;;6.35;1.73;;;19.40;64.20;;;;;;5039819;28;20037;-82
2023/07/12 01:42:05;;;;;;;5.03;1.52;;;19.40;64.20;;;;;;5044771;28;20029;-82
2023/07/12 01:44:31;;;;;;;3.33;2.28;;;19.40;64.30;;;;;;5033290;28;20024;-81
2023/07/12 01:47:01;;;;;;;5.60;2.00;;;19.40;64.30;;;;;;5038217;28;20040;-81
2023/07/12 01:49:27;;;;;;;5.32;2.30;;;19.40;64.40;;;;;;5040314;28;20337;-80
2023/07/12 01:51:56;;;;;;;7.32;2.17;;;19.40;64.40;;;;;;5051555;28;20359;-82
2023/07/12 01:54:22;;;;;;;4.20;1.65;;;19.30;64.30;;;;;;5025701;28;20041;-82
2023/07/12 01:56:49;;;;;;;5.80;1.65;;;19.30;64.40;;;;;;5032701;28;20036;-83
2023/07/12 01:59:18;;;;;;;8.75;2.20;;;19.30;64.40;;;;;;5038636;28;20058;-82
2023/07/12 02:01:45;;;;;;;5.03;2.10;;;19.30;64.40;;;;;;5032656;28;20093;-81
2023/07/12 02:04:17;;;;;;;4.47;1.67;;;19.30;64.50;;;;;;5059238;28;20033;-81
2023/07/12 02:06:46;;;;;;;4.45;2.20;;;19.30;64.50;;;;;;5050838;28;20049;-82
2023/07/12 02:09:13;;;;;;;4.85;2.10;;;19.20;64.40;;;;;;5045387;28;20051;-81
2023/07/12 02:11:39;;;;;;;4.07;1.83;;;19.20;64.40;;;;;;5063059;28;20036;-83
2023/07/12 02:14:05;;;;;;;5.93;1.88;;;19.20;64.50;;;;;;5031271;28;20564;-82
2023/07/12 02:16:32;;;;;;;5.50;1.85;;;19.10;64.40;;;;;;5038034;28;20440;-80
2023/07/12 02:18:58;;;;;;;4.80;2.20;;;19.10;64.40;;;;;;5042390;28;20717;-83
2023/07/12 02:21:25;;;;;;;4.68;1.77;;;19.10;64.50;;;;;;5062975;28;20060;-82
2023/07/12 02:23:54;;;;;;;6.68;2.17;;;19.10;64.50;;;;;;5058134;28;20047;-83
2023/07/12 02:26:21;;;;;;;7.60;2.28;;;19.00;64.40;;;;;;5063018;28;20123;-83
2023/07/12 02:28:47;;;;;;;4.97;1.70;;;19.00;64.50;;;;;;5041625;28;20031;-82
2023/07/12 02:31:22;;;;;;;7.00;1.93;;;19.00;64.60;;;;;;5033418;28;20021;-82
2023/07/12 02:33:50;;;;;;;4.28;1.90;;;18.90;64.50;;;;;;5045778;28;20298;-83
2023/07/12 02:36:17;;;;;;;6.50;1.77;;;18.90;64.60;;;;;;5042570;28;20088;-83
2023/07/12 02:38:44;;;;;;;5.32;1.73;;;18.90;64.70;;;;;;5041803;28;20328;-83
2023/07/12 02:41:19;;;;;;;4.20;1.38;;;18.90;64.70;;;;;;5050342;28;20165;-83
2023/07/12 02:43:46;;;;;;;4.53;1.63;;;18.90;64.90;;;;;;5024642;28;20151;-82
2023/07/12 02:46:13;;;;;;;3.78;1.70;;;18.80;64.70;;;;;;5042846;28;20369;-83
2023/07/12 02:48:44;;;;;;;3.45;1.50;;;18.80;64.80;;;;;;5046573;28;20654;-83
2023/07/12 02:51:10;;;;;;;3.10;1.77;;;18.80;64.90;;;;;;5051369;28;20116;-83
2023/07/12 02:53:36;;;;;;;5.95;2.53;;;18.80;64.90;;;;;;5045167;28;20029;-82
2023/07/12 02:56:03;;;;;;;3.50;2.00;;;18.80;64.90;;;;;;5047582;28;20035;-82
2023/07/12 02:58:29;;;;;;;3.90;2.53;;;18.80;65.50;;;;;;5023033;28;20147;-83
2023/07/12 03:00:57;;;;;;;2.72;1.40;;;18.80;65.00;;;;;;5029153;28;20085;-82
2023/07/12 03:03:24;;;;;;;4.80;1.67;;;18.80;65.00;;;;;;5049661;28;20100;-82
2023/07/12 03:05:50;;;;;;;4.45;1.77;;;18.80;65.00;;;;;;5043635;28;20043;-82
2023/07/12 03:08:16;;;;;;;4.75;2.40;;;18.80;65.00;;;;;;5030646;28;20029;-82
2023/07/12 03:10:42;;;;;;;6.63;2.35;;;18.80;65.00;;;;;;5055462;28;20021;-83
2023/07/12 03:13:09;;;;;;;5.82;2.33;;;18.80;65.00;;;;;;5050547;28;20533;-83
2023/07/12 03:15:39;;;;;;;7.43;2.55;;;18.80;65.00;;;;;;5026079;28;20042;-83
2023/07/12 03:18:06;;;;;;;6.28;2.08;;;18.80;65.00;;;;;;5034665;28;20031;-83
2023/07/12 03:20:33;;;;;;;4.57;2.30;;;18.80;65.00;;;;;;5045502;28;20029;-84
2023/07/12 03:22:59;;;;;;;3.75;1.75;;;18.80;65.00;;;;;;5048264;28;20032;-83
2023/07/12 03:25:25;;;;;;;7.28;2.75;;;18.80;65.10;;;;;;5013606;28;20222;-83
2023/07/12 03:27:51;;;;;;;6.40;2.35;;;18.80;65.10;;;;;;5050746;28;20488;-84
2023/07/12 03:30:17;;;;;;;4.88;2.00;;;18.80;65.10;;;;;;5040858;28;20256;-83
2023/07/12 03:32:43;;;;;;;4.57;1.77;;;18.70;64.90;;;;;;5044990;28;20620;-83
2023/07/12 03:35:09;;;;;;;3.08;2.13;;;18.70;64.90;;;;;;5021130;28;20055;-83
2023/07/12 03:37:36;;;;;;;4.70;1.70;;;18.70;64.90;;;;;;5034313;28;20068;-83
2023/07/12 03:40:03;;;;;;;3.95;2.03;;;18.70;64.90;;;;;;5047104;28;20451;-83
2023/07/12 03:42:29;;;;;;;4.70;1.98;;;18.70;64.90;;;;;;5041664;28;20469;-83
2023/07/12 03:44:55;;;;;;;8.80;2.80;;;18.70;65.00;;;;;;5041824;28;20068;-83
2023/07/12 03:47:21;;;;;;;5.57;2.28;;;18.70;65.00;;;;;;5046542;28;20040;-83
2023/07/12 03:49:47;;;;;;;6.82;2.78;;;18.70;65.00;;;;;;5024805;28;20028;-83
2023/07/12 03:52:13;;;;;;;7.05;2.30;;;18.70;65.00;;;;;;5032820;28;20085;-83
2023/07/12 03:54:38;;;;;;;4.95;2.15;;;18.70;65.00;;;;;;5034214;28;20632;-82
2023/07/12 03:57:05;;;;;;;6.25;2.92;;;18.70;65.00;;;;;;5042268;28;20037;-83
2023/07/12 03:59:31;;;;;;;5.60;2.13;;;18.60;64.80;;;;;;5054125;28;20032;-82
2023/07/12 04:01:56;;;;;;;4.97;2.28;;;18.60;64.90;;;;;;5044372;28;20407;-83
2023/07/12 04:04:23;;;;;;;4.35;2.47;;;18.60;64.90;;;;;;5042254;28;20499;-83
2023/07/12 04:06:49;;;;;;;3.35;1.83;;;18.60;64.90;;;;;;5035218;28;20033;-84
2023/07/12 04:09:15;;;;;;;5.88;2.25;;;18.60;65.50;;;;;;5057903;28;20036;-82
2023/07/12 04:11:41;;;;;;;5.10;2.45;;;18.50;64.80;;;;;;5051891;28;20115;-82
2023/07/12 04:14:08;;;;;;;2.88;1.67;;;18.50;64.80;;;;;;5056286;28;20051;-81
2023/07/12 04:16:34;;;;;;;5.07;1.90;;;18.50;64.90;;;;;;5032985;28;20417;-82
2023/07/12 04:19:00;;;;;;;2.83;1.83;;;18.50;64.90;;;;;;5036829;28;20095;-81
2023/07/12 04:21:26;;;;;;;4.57;1.70;;;18.40;64.80;;;;;;5030108;28;20076;-81
2023/07/12 04:23:53;;;;;;;3.42;1.83;;;18.40;64.80;;;;;;5043367;28;20389;-81
2023/07/12 04:26:20;;;;;;;6.78;2.75;;;18.40;64.80;;;;;;5035034;28;20640;-81
2023/07/12 04:28:51;;;;;;;3.50;1.75;;;18.40;64.90;;;;;;5043674;28;20966;-81
2023/07/12 04:31:19;;;;;;;5.43;1.63;;;18.30;64.70;;;;;;5046459;28;20017;-81
2023/07/12 04:33:46;;;;;;;5.97;2.22;;;18.30;64.70;;;;;;5058279;28;20144;-82
2023/07/12 04:36:13;;;;;;;2.88;1.50;;;18.30;64.80;;;;;;5046268;28;20063;-81
2023/07/12 04:38:39;;;;;;;3.72;2.08;;;18.30;64.70;;;;;;5047324;28;20086;-83
2023/07/12 04:41:05;;;;;;;3.22;1.75;;;18.40;64.90;;;;;;5051242;28;20028;-80
2023/07/12 04:43:32;;;;;;;4.50;2.15;;;18.40;64.90;;;;;;5029092;28;20040;-81
2023/07/12 04:45:59;;;;;;;3.50;1.50;;;18.30;64.70;;;;;;5056946;28;20041;-81
2023/07/12 04:48:25;;;;;;;4.38;2.15;;;18.30;64.60;;;;;;5055082;28;20181;-81
2023/07/12 04:50:53;;;;;;;3.05;1.85;;;18.40;64.80;;;;;;5022018;28;20520;-80
2023/07/12 04:53:23;;;;;;;3.03;1.70;;;18.40;64.70;;;;;;5041717;28;20412;-82
2023/07/12 04:55:52;;;;;;;4.57;1.67;;;18.40;64.70;;;;;;5045450;28;20061;-81
2023/07/12 04:58:19;;;;;;;4.35;1.77;;;18.40;64.60;;;;;;5049008;28;20119;-81
2023/07/12 05:00:45;;;;;;;4.93;2.05;;;18.50;64.80;;;;;;5040610;28;20038;-81
2023/07/12 05:03:12;;;;;;;4.13;2.30;;;18.50;64.70;;;;;;5045486;28;20532;-82
2023/07/12 05:05:38;;;;;;;3.80;1.60;;;18.50;64.70;;;;;;5026007;28;20037;-82
2023/07/12 05:08:05;;;;;;;4.93;2.50;;;18.60;64.80;;;;;;5053260;28;20299;-80
2023/07/12 05:10:32;;;;;;;3.78;1.80;;;18.60;64.70;;;;;;5042274;28;20036;-81
2023/07/12 05:12:58;;;;;;;3.28;1.65;;;18.70;64.80;;;;;;5052000;28;20040;-80
2023/07/12 05:15:25;;;;;;;4.22;1.80;;;18.70;64.70;;;;;;5038050;28;20090;-81
2023/07/12 05:17:50;;;;;;;4.97;1.92;;;18.70;64.70;;;;;;5046786;28;20032;-81
2023/07/12 05:20:18;;;;;;;4.15;1.83;;;18.70;64.70;;;;;;5047295;28;20029;-82
2023/07/12 05:22:47;;;;;;;4.45;1.90;;;18.70;64.70;;;;;;5049593;28;20115;-84
2023/07/12 05:25:13;;;;;;;2.92;1.90;;;18.80;64.80;;;;;;5026447;28;20040;-81
2023/07/12 05:27:39;;;;;;;5.05;1.85;;;18.80;64.80;;;;;;5038778;28;20124;-81
2023/07/12 05:30:06;;;;;;;3.38;2.38;;;18.80;64.70;;;;;;5045445;28;20048;-83
2023/07/12 05:32:32;;;;;;;5.30;2.00;;;18.90;64.80;;;;;;5052387;28;20048;-80
2023/07/12 05:34:58;;;;;;;4.38;1.98;;;18.90;64.60;;;;;;5036339;28;20060;-81
2023/07/12 05:37:24;;;;;;;2.55;1.67;;;19.00;64.70;;;;;;5029567;28;20090;-78
2023/07/12 05:39:51;;;;;;;3.20;1.70;;;19.00;64.50;;;;;;5035139;28;20037;-78
2023/07/12 05:42:17;;;;;;;3.75;2.25;;;19.00;64.50;;;;;;5029576;28;20378;-82
2023/07/12 05:44:43;;;;;;;4.45;2.28;;;19.10;64.60;;;;;;5046840;28;20491;-79
2023/07/12 05:47:09;;;;;;;2.53;1.45;;;19.10;64.60;;;;;;5046394;28;20417;-79
2023/07/12 05:49:35;;;;;;;1.98;1.40;;;19.10;64.60;;;;;;5030152;28;20036;-79
2023/07/12 05:52:02;;;;;;;3.60;1.60;;;19.10;64.50;;;;;;5028961;28;20037;-79
2023/07/12 05:54:29;;;;;;;2.95;1.60;;;19.10;64.50;;;;;;5034303;28;20051;-79
2023/07/12 05:56:55;;;;;;;3.63;1.48;;;19.10;64.40;;;;;;5033307;28;20056;-79
2023/07/12 05:59:22;;;;;;;4.07;1.48;;;19.10;64.40;;;;;;5035765;28;20043;-80
2023/07/12 06:01:48;;;;;;;2.30;1.67;;;19.20;64.60;;;;;;5043329;28;20037;-81
2023/07/12 06:04:14;;;;;;;2.78;1.50;;;19.10;64.40;;;;;;5046963;28;20448;-79
2023/07/12 06:06:40;;;;;;;3.75;1.40;;;19.10;64.40;;;;;;5050721;28;20036;-79
2023/07/12 06:09:07;;;;;;;5.80;2.65;;;19.20;64.40;;;;;;5034476;28;20520;-79
2023/07/12 06:11:33;;;;;;;2.42;1.50;;;19.30;64.50;;;;;;5049923;28;20061;-77
2023/07/12 06:13:59;;;;;;;2.78;1.45;;;19.30;64.40;;;;;;5034492;28;20036;-78
2023/07/12 06:16:26;;;;;;;2.45;1.48;;;19.50;64.60;;;;;;5032661;28;20083;-78
2023/07/12 06:18:52;;;;;;;5.28;1.60;;;19.70;64.70;;;;;;5045044;28;20169;-79
2023/07/12 06:21:18;;;;;;;4.30;1.35;;;19.90;64.70;;;;;;5053662;28;20044;-79
2023/07/12 06:23:44;;;;;;;3.72;1.38;;;20.10;64.70;;;;;;5049211;28;20043;-79
2023/07/12 06:26:10;;;;;;;5.40;1.95;;;20.20;64.60;;;;;;5051766;28;20024;-79
2023/07/12 06:28:37;;;;;;;3.78;1.27;;;20.50;64.70;;;;;;5028197;28;20488;-78
2023/07/12 06:31:03;;;;;;;2.28;1.30;;;20.70;64.70;;;;;;5028638;28;20029;-80
2023/07/12 06:33:29;;;;;;;2.63;1.40;;;21.00;64.80;;;;;;5047307;28;20172;-78
2023/07/12 06:35:58;;;;;;;4.00;1.20;;;21.30;64.50;;;;;;5044779;28;20024;-78
2023/07/12 06:38:24;;;;;;;2.63;1.70;;;21.60;64.40;;;;;;5047354;28;20037;-78
2023/07/12 06:40:50;;;;;;;4.80;1.35;;;21.90;64.30;;;;;;5047389;28;20038;-78
2023/07/12 06:43:16;;;;;;;3.47;1.77;;;22.20;64.20;;;;;;5035541;28;20044;-78
2023/07/12 06:45:46;;;;;;;3.17;1.23;;;22.60;64.10;;;;;;5045296;28;20055;-78
2023/07/12 06:48:12;;;;;;;4.45;1.50;;;23.00;64.00;;;;;;5044104;28;20062;-79
2023/07/12 06:50:39;;;;;;;2.67;1.42;;;23.40;63.70;;;;;;5045630;28;20515;-78
2023/07/12 06:53:05;;;;;;;4.20;1.63;;;23.80;63.40;;;;;;5035726;28;20032;-78
2023/07/12 06:55:34;;;;;;;2.42;0.95;;;24.20;63.10;;;;;;5048317;28;20188;-77
2023/07/12 06:58:01;;;;;;;4.32;1.73;;;24.70;62.90;;;;;;5036435;28;20047;-77
2023/07/12 07:00:27;;;;;;;3.35;1.17;;;25.20;62.50;;;;;;5051177;28;20341;-80
2023/07/12 07:02:53;;;;;;;4.68;1.58;;;25.50;61.90;;;;;;5052475;28;20347;-78
2023/07/12 07:05:19;;;;;;;3.90;1.58;;;25.80;61.50;;;;;;5044252;28;20048;-78
2023/07/12 07:07:45;;;;;;;2.97;1.50;;;26.10;60.90;;;;;;5049818;28;20094;-78
2023/07/12 07:10:11;;;;;;;4.05;1.40;;;26.40;60.20;;;;;;5031825;28;20080;-79
2023/07/12 07:12:37;;;;;;;3.15;1.60;;;26.60;59.70;;;;;;5050562;28;20122;-79
2023/07/12 07:15:09;;;;;;;2.67;1.80;;;26.60;59.50;;;;;;5038204;28;20403;-80
2023/07/12 07:17:35;;;;;;;2.58;1.13;;;26.50;59.50;;;;;;5036573;28;20048;-80
2023/07/12 07:20:01;;;;;;;3.30;1.17;;;26.30;59.50;;;;;;5049222;28;20115;-79
2023/07/12 07:22:28;;;;;;;2.55;1.25;;;26.20;59.60;;;;;;5038733;28;20063;-79
2023/07/12 07:24:54;;;;;;;3.20;1.10;;;26.00;59.60;;;;;;5045520;28;20073;-80
2023/07/12 07:27:20;;;;;;;3.67;1.33;;;25.90;59.90;;;;;;5047455;28;20067;-80
2023/07/12 07:29:46;;;;;;;5.70;1.77;;;25.90;59.80;;;;;;5046363;28;20445;-80
2023/07/12 07:32:12;;;;;;;5.30;1.50;;;25.80;59.80;;;;;;5048669;28;20044;-79
2023/07/12 07:34:38;;;;;;;3.38;1.35;;;25.70;59.80;;;;;;5045316;28;20111;-78
2023/07/12 07:37:04;;;;;;;4.00;1.42;;;25.60;60.00;;;;;;5035208;28;20036;-80
2023/07/12 07:39:31;;;;;;;3.03;1.73;;;25.50;59.90;;;;;;5036323;28;20147;-80
2023/07/12 07:41:57;;;;;;;4.47;1.30;;;25.40;59.90;;;;;;5033823;28;20040;-81
2023/07/12 07:44:23;;;;;;;4.15;1.25;;;25.30;60.00;;;;;;5049230;28;20180;-79
2023/07/12 07:46:49;;;;;;;2.70;0.90;;;25.10;60.10;;;;;;5037100;28;20434;-79
2023/07/12 07:49:15;;;;;;;3.50;1.10;;;24.90;60.20;;;;;;5029471;28;20503;-80
2023/07/12 07:51:44;;;;;;;4.25;1.83;;;24.80;60.40;;;;;;5038363;28;20029;-80
2023/07/12 07:54:10;;;;;;;5.43;1.83;;;24.70;60.40;;;;;;5042481;28;20048;-80
2023/07/12 07:56:41;;;;;;;2.75;1.30;;;24.70;60.40;;;;;;5032867;28;20028;-79
2023/07/12 07:59:08;;;;;;;2.85;1.50;;;24.60;60.30;;;;;;5025376;28;20102;-80
2023/07/12 08:01:34;;;;;;;4.47;1.48;;;24.50;60.30;;;;;;5046440;28;20326;-79
2023/07/12 08:04:02;;;;;;;3.00;1.10;;;24.50;60.40;;;;;;5041105;28;20106;-81
2023/07/12 08:06:28;;;;;;;4.10;1.58;;;24.50;60.40;;;;;;5040383;28;20033;-77
2023/07/12 08:08:54;;;;;;;4.47;1.58;;;24.40;60.30;;;;;;5048446;28;20052;-80
2023/07/12 08:11:20;;;;;;;3.83;1.30;;;24.30;60.20;;;;;;5049987;28;20032;-81
2023/07/12 08:13:47;;;;;;;5.25;1.80;;;24.20;60.20;;;;;;5045220;28;20041;-79
2023/07/12 08:16:14;;;;;;;4.55;1.38;;;24.10;60.20;;;;;;5042821;28;20518;-78
2023/07/12 08:18:40;;;;;;;5.57;2.00;;;24.10;60.40;;;;;;5039911;28;20630;-79
2023/07/12 08:21:12;;;;;;;6.07;1.58;;;24.00;60.30;;;;;;5037477;28;20039;-79
2023/07/12 08:23:38;;;;;;;2.90;1.75;;;24.00;60.30;;;;;;5039071;28;20037;-79
2023/07/12 08:26:04;;;;;;;2.70;1.38;;;24.10;60.40;;;;;;5047337;28;20120;-78
2023/07/12 08:28:30;;;;;;;5.97;1.80;;;24.00;60.30;;;;;;5037165;28;20490;-79
2023/07/12 08:30:57;;;;;;;4.80;1.38;;;23.90;60.20;;;;;;5040157;28;20501;-78
2023/07/12 08:33:38;;;;;;;2.88;1.30;;;23.80;60.20;;;;;;5038715;28;20060;-78
2023/07/12 08:36:07;;;;;;;4.30;1.50;;;23.80;60.50;;;;;;5042539;28;20506;-80
2023/07/12 08:38:33;;;;;;;3.55;1.50;;;23.70;60.40;;;;;;5024488;28;20674;-80
2023/07/12 08:41:09;;;;;;;2.65;1.25;;;23.70;60.60;;;;;;5044701;28;20156;-78
2023/07/12 08:43:38;;;;;;;3.15;1.02;;;23.90;60.70;;;;;;5029446;28;20116;-79
2023/07/12 08:46:12;;;;;;;5.85;2.10;;;24.10;60.40;;;;;;5046844;28;20066;-79
2023/07/12 08:48:38;;;;;;;3.35;1.20;;;24.20;60.30;;;;;;5049475;28;20024;-80
2023/07/12 08:51:26;;;;;;;6.05;2.05;;;24.20;60.20;;;;;;5040804;28;20048;-80
2023/07/12 08:53:55;;;;;;;5.20;1.67;;;24.20;60.30;;;;;;5031857;28;20497;-80
2023/07/12 08:56:22;;;;;;;5.80;1.38;;;24.20;60.40;;;;;;5032585;28;20330;-80
2023/07/12 08:58:51;;;;;;;2.05;1.17;;;24.10;60.30;;;;;;5032083;28;20036;-81
2023/07/12 09:01:49;;;;;;;2.53;1.40;;;24.10;60.40;;;;;;5044345;28;20164;-80
2023/07/12 09:04:25;;;;;;;1.65;0.93;;;24.10;60.50;;;;;;5035003;28;20408;-81
2023/07/12 09:06:58;;;;;;;4.25;1.52;;;24.10;60.60;;;;;;5038765;28;20419;-80
2023/07/12 09:09:26;;;;;;;3.33;1.13;;;24.00;60.50;;;;;;5049974;28;20029;-80
2023/07/12 09:11:52;;;;;;;3.97;1.80;;;24.00;60.50;;;;;;5053834;28;20115;-80
2023/07/12 09:14:21;;;;;;;1.98;1.13;;;24.00;60.50;;;;;;5040026;28;20317;-81
2023/07/12 09:16:58;;;;;;;2.05;1.17;;;24.00;60.60;;;;;;5051388;28;20044;-80
2023/07/12 09:19:35;;;;;;;3.75;1.35;;;24.00;61.20;;;;;;5038116;28;20040;-81
2023/07/12 09:22:13;;;;;;;1.92;1.00;;;24.00;60.70;;;;;;5029789;28;20292;-80
2023/07/12 09:24:56;;;;;;;4.15;1.33;;;24.10;60.80;;;;;;5018211;28;20037;-80
2023/07/12 09:27:27;;;;;;;4.15;1.10;;;24.20;60.80;;;;;;5054391;28;20535;-80
2023/07/12 09:30:02;;;;;;;3.30;1.25;;;24.40;60.80;;;;;;5038495;28;20443;-80
2023/07/12 09:32:35;;;;;;;2.35;1.00;;;24.60;60.90;;;;;;5035592;28;20048;-79
2023/07/12 09:35:24;;;;;;;3.85;1.90;;;24.70;60.70;;;;;;5036480;28;20037;-78
2023/07/12 09:38:04;;;;;;;3.10;1.20;;;25.00;60.70;;;;;;5035482;28;20782;-78
2023/07/12 09:40:41;;;;;;;2.38;1.00;;;25.10;60.50;;;;;;5051109;28;20036;-78
2023/07/12 09:43:24;;;;;;;3.80;1.30;;;25.10;60.40;;;;;;5041597;28;20559;-78
2023/07/12 09:46:22;;;;;;;3.47;1.08;;;25.20;60.30;;;;;;5039334;28;20035;-79
2023/07/12 09:49:04;;;;;;;5.70;1.55;;;25.10;60.30;;;;;;5048649;28;20036;-78
2023/07/12 09:51:57;;;;;;;2.50;1.20;;;25.10;60.30;;;;;;5044837;28;20544;-78
2023/07/12 09:54:35;;;;;;;3.92;1.23;;;25.10;60.40;;;;;;5032450;28;20103;-78
2023/07/12 09:57:26;;;;;;;2.45;1.10;;;25.20;60.30;;;;;;5033608;28;20050;-80
2023/07/12 10:00:15;;;;;;;4.47;0.90;;;25.50;60.10;;;;;;5049508;28;20491;-80
2023/07/12 10:02:46;;;;;;;1.27;0.80;;;25.80;59.60;;;;;;5051040;28;20056;-80
2023/07/12 10:05:20;;;;;;;3.75;1.33;;;26.20;59.20;;;;;;5050715;28;20037;-79
2023/07/12 10:07:53;;;;;;;4.32;1.27;;;26.50;58.60;;;;;;5055521;28;20033;-81
2023/07/12 10:10:30;;;;;;;3.97;1.90;;;26.60;58.20;;;;;;5042733;28;20115;-81
2023/07/12 10:13:19;;;;;;;4.78;1.80;;;26.60;58.20;;;;;;5023590;28;20055;-80
2023/07/12 10:15:47;;;;;;;5.47;1.15;;;26.80;58.00;;;;;;5032557;28;20569;-80
2023/07/12 10:18:19;;;;;;;4.60;1.65;;;26.90;57.90;;;;;;5041709;28;20526;-81
2023/07/12 10:20:47;;;;;;;4.75;1.27;;;27.10;57.60;;;;;;5055692;28;20100;-81
2023/07/12 10:23:21;;;;;;;2.95;1.05;;;27.40;57.30;;;;;;5040851;28;20370;-79
2023/07/12 10:26:04;;;;;;;10.07;2.17;;;27.60;56.90;;;;;;5044850;28;20028;-80
2023/07/12 10:28:40;;;;;;;3.50;1.23;;;27.80;56.50;;;;;;5023790;28;20040;-81
2023/07/12 10:31:25;;;;;;;3.40;1.15;;;27.80;56.10;;;;;;5052566;28;20082;-80
2023/07/12 10:33:59;;;;;;;3.33;1.58;;;27.90;56.00;;;;;;5050029;28;20040;-81
2023/07/12 10:36:26;;;;;;;2.47;1.10;;;28.00;55.90;;;;;;5029700;28;20082;-80
2023/07/12 10:38:53;;;;;;;1.85;0.80;;;28.10;55.70;;;;;;5043329;28;20037;-80
2023/07/12 10:41:33;;;;;;;2.95;0.90;;;28.20;55.70;;;;;;5054548;28;20665;-80
2023/07/12 10:44:11;;;;;;;5.55;1.58;;;28.30;55.30;;;;;;5039711;28;20091;-79
2023/07/12 10:46:41;;;;;;;;;;;28.50;55.10;;;;;;5051367;28;20078;-81
2023/07/12 10:50:07;;;;;;;3.30;1.50;;;28.60;54.90;;;;;;5040676;28;19912;-84
2023/07/12 10:52:55;;;;;;;3.42;1.27;;;28.70;54.50;;;;;;4935897;28;20046;-81
2023/07/12 10:55:36;;;;;;;2.65;1.00;;;28.80;54.60;;;;;;5046153;28;20048;-80
2023/07/12 10:58:20;;;;;;;3.08;0.98;;;28.90;54.20;;;;;;5034861;28;20040;-79
2023/07/12 11:00:58;;;;;;;2.58;1.30;;;29.10;53.80;;;;;;5034246;28;20040;-79
2023/07/12 11:03:41;;;;;;;3.47;1.73;;;29.30;53.40;;;;;;5035505;28;20056;-78
2023/07/12 11:06:26;;;;;;;;;;;29.40;53.10;;;;;;5038183;28;20029;-80
2023/07/12 11:09:03;;;;;;;2.63;1.17;;;29.50;53.30;;;;;;5044000;28;19985;-81
2023/07/12 11:11:44;;;;;;;5.05;1.98;;;29.60;53.10;;;;;;5048131;28;20660;-79
2023/07/12 11:14:51;;;;;;;2.88;1.45;;;29.60;53.50;;;;;;5050316;28;20045;-79
2023/07/12 11:17:27;;;;;;;3.83;1.50;;;29.70;52.30;;;;;;4940266;28;20055;-81
2023/07/12 11:20:08;;;;;;;3.45;1.08;;;29.90;52.40;;;;;;5035950;28;20214;-83
2023/07/12 11:22:53;;;;;;;4.20;1.38;;;30.10;51.90;;;;;;5035692;28;20595;-82
2023/07/12 11:25:44;;;;;;;2.33;1.13;;;30.40;51.60;;;;;;5036506;28;20029;-87
2023/07/12 11:28:25;;;;;;;4.22;1.48;;;30.80;51.20;;;;;;5046776;28;20531;-82
2023/07/12 11:31:17;;;;;;;2.38;1.10;;;31.20;50.50;;;;;;5042606;28;20029;-80
2023/07/12 11:33:52;;;;;;;4.55;1.58;;;31.70;49.90;;;;;;5029234;28;20044;-82
2023/07/12 11:36:24;;;;;;;3.65;1.73;;;32.00;49.50;;;;;;5026068;28;20028;-83
2023/07/12 11:38:53;;;;;;;3.63;1.10;;;32.40;48.90;;;;;;5043119;28;20119;-80
2023/07/12 11:41:25;;;;;;;2.30;1.52;;;32.80;48.60;;;;;;5057620;28;20078;-81
2023/07/12 11:44:14;;;;;;;3.47;1.40;;;33.10;48.20;;;;;;5044298;28;20559;-80
2023/07/12 11:46:43;;;;;;;4.15;1.48;;;33.30;47.70;;;;;;5025881;28;20277;-80
2023/07/12 11:49:26;;;;;;;2.60;0.68;;;33.60;47.50;;;;;;5058025;28;20648;-78
2023/07/12 11:51:55;;;;;;;2.50;1.05;;;33.90;46.80;;;;;;5053588;28;20123;-80
2023/07/12 11:54:26;;;;;;;;;;;34.20;46.50;;;;;;5061512;28;20652;-81
2023/07/12 11:56:58;;;;;;;3.15;1.25;;;34.30;46.50;;;;;;5032863;28;19909;-82
2023/07/12 11:59:27;;;;;;;2.55;1.15;;;34.30;46.60;;;;;;5041114;28;20024;-82
2023/07/12 12:02:13;;;;;;;3.35;1.55;;;34.20;46.50;;;;;;5042335;28;20040;-81
2023/07/12 12:04:39;;;;;;;3.42;1.45;;;34.10;46.50;;;;;;5057031;28;20800;-80
2023/07/12 12:07:31;;;;;;;4.22;1.27;;;33.90;46.40;;;;;;5060641;28;20259;-81
2023/07/12 12:09:59;;;;;;;2.58;1.35;;;33.80;46.20;;;;;;5038716;28;20339;-79
2023/07/12 12:12:31;;;;;;;4.53;1.55;;;33.80;46.30;;;;;;5052399;28;20137;-80
2023/07/12 12:14:57;;;;;;;4.18;1.33;;;33.80;46.10;;;;;;5025474;28;20075;-80
2023/07/12 12:17:31;;;;;;;2.50;0.98;;;33.80;46.90;;;;;;5052020;28;20361;-82
2023/07/12 12:20:14;;;;;;;3.25;1.20;;;33.70;46.10;;;;;;5044299;28;20024;-81
2023/07/12 12:22:42;;;;;;;5.22;2.17;;;33.70;46.00;;;;;;5032274;28;20033;-81
2023/07/12 12:25:23;;;;;;;2.78;1.50;;;33.80;46.10;;;;;;5042355;28;20032;-81
2023/07/12 12:28:33;;;;;;;2.60;1.30;;;33.90;45.60;;;;;;5026664;28;20052;-81
2023/07/12 12:31:03;;;;;;;3.78;1.33;;;33.90;45.50;;;;;;5028249;28;20033;-80
2023/07/12 12:33:46;;;;;;;2.17;1.20;;;33.90;45.60;;;;;;5047814;28;20041;-82
2023/07/12 12:36:28;;;;;;;3.58;1.42;;;33.90;45.40;;;;;;5051084;28;20032;-82
2023/07/12 12:39:03;;;;;;;3.78;1.20;;;34.20;45.20;;;;;;5035768;28;20049;-81
2023/07/12 12:41:43;;;;;;;6.57;1.30;;;34.40;44.90;;;;;;5032316;28;20422;-82
2023/07/12 12:44:13;;;;;;;2.63;1.10;;;34.80;44.20;;;;;;5045777;28;20354;-79
2023/07/12 12:46:43;;;;;;;3.60;1.30;;;34.90;43.80;;;;;;5033251;28;20041;-80
2023/07/12 12:49:30;;;;;;;3.03;1.05;;;35.10;43.70;;;;;;5053042;28;20025;-81
2023/07/12 12:52:19;;;;;;;3.25;1.35;;;35.20;43.30;;;;;;5040882;28;20051;-80
2023/07/12 12:54:47;;;;;;;2.67;1.05;;;35.40;43.20;;;;;;5046902;28;20417;-80
2023/07/12 12:57:13;;;;;;;3.13;1.17;;;35.50;43.20;;;;;;5050668;28;20134;-81
2023/07/12 12:59:40;;;;;;;3.85;1.00;;;35.70;42.90;;;;;;5039235;28;20041;-81
2023/07/12 13:02:15;;;;;;;2.75;1.27;;;35.80;42.80;;;;;;5017923;28;20614;-81
2023/07/12 13:04:42;;;;;;;2.53;1.15;;;35.90;42.50;;;;;;5057514;28;20051;-80
2023/07/12 13:07:16;;;;;;;2.80;1.52;;;35.90;42.40;;;;;;5014970;28;20530;-80
2023/07/12 13:09:42;;;;;;;4.57;1.55;;;36.00;42.20;;;;;;5044239;28;20032;-80